Time;durP1;ratioP1;P1;durP2;ratioP2;P2;SDS_P1;SDS_P2;PMS_P1;PMS_P2;Temp;Humidity;BMP_temperature;BMP_pressure;BME280_temperature;BME280_humidity;BME280_pressure;Samples;Min_cycle;Max_cycle;Signal;HPM_P1;HPM_P2
2023/08/15 00:01:26;;;;;;;4.30;3.45;;;20.00;99.90;;;;;;5037665;28;20043;-31
2023/08/15 00:03:53;;;;;;;4.90;4.22;;;20.00;99.90;;;;;;5042234;28;20148;-32
2023/08/15 00:06:20;;;;;;;4.10;3.65;;;19.80;99.90;;;;;;5042568;28;20150;-30
2023/08/15 00:08:53;;;;;;;3.97;3.58;;;19.90;99.90;;;;;;5042849;28;20029;-31
2023/08/15 00:11:19;;;;;;;4.00;3.60;;;19.90;99.90;;;;;;5038651;28;20025;-30
2023/08/15 00:13:45;;;;;;;6.30;4.10;;;19.90;99.90;;;;;;5040825;28;20027;-30
2023/08/15 00:16:10;;;;;;;5.15;3.92;;;19.90;99.90;;;;;;5039667;28;20025;-30
2023/08/15 00:18:36;;;;;;;4.75;4.15;;;19.90;99.90;;;;;;5040353;28;20048;-35
2023/08/15 00:21:02;;;;;;;4.68;3.70;;;19.70;99.90;;;;;;5041161;28;20036;-36
2023/08/15 00:23:27;;;;;;;4.75;4.25;;;19.70;99.90;;;;;;5044302;28;20486;-30
2023/08/15 00:25:53;;;;;;;5.63;3.72;;;19.80;99.90;;;;;;5041945;28;20060;-33
2023/08/15 00:28:18;;;;;;;3.70;3.33;;;19.80;99.90;;;;;;5039867;28;20037;-30
2023/08/15 00:30:44;;;;;;;3.15;2.85;;;19.70;99.90;;;;;;5041036;28;20025;-33
2023/08/15 00:33:09;;;;;;;3.20;2.90;;;19.80;99.90;;;;;;5039302;28;20063;-31
2023/08/15 00:35:35;;;;;;;4.25;3.30;;;19.80;99.90;;;;;;5040613;28;20112;-30
2023/08/15 00:38:00;;;;;;;4.47;3.30;;;19.70;99.90;;;;;;5042657;28;20479;-30
2023/08/15 00:40:26;;;;;;;5.40;3.92;;;19.60;99.90;;;;;;5045511;28;20474;-31
2023/08/15 00:42:51;;;;;;;4.63;4.18;;;19.70;99.90;;;;;;5039008;28;20142;-30
2023/08/15 00:45:17;;;;;;;4.57;4.10;;;19.70;99.90;;;;;;5040690;28;20033;-30
2023/08/15 00:47:43;;;;;;;4.40;4.00;;;19.70;99.90;;;;;;5038983;28;20037;-30
2023/08/15 00:50:10;;;;;;;4.80;3.90;;;19.50;99.90;;;;;;5046783;28;21070;-30
2023/08/15 00:52:35;;;;;;;4.60;4.07;;;19.50;99.90;;;;;;5042464;28;20029;-30
2023/08/15 00:55:02;;;;;;;7.40;3.80;;;19.20;99.90;;;;;;5024392;28;20257;-38
2023/08/15 00:57:27;;;;;;;4.13;3.72;;;19.20;99.90;;;;;;5040762;28;20029;-40
2023/08/15 00:59:53;;;;;;;4.68;4.10;;;19.30;99.90;;;;;;5043267;28;20039;-40
2023/08/15 01:02:18;;;;;;;4.50;3.63;;;19.20;99.90;;;;;;5035793;28;20566;-33
2023/08/15 01:04:44;;;;;;;3.72;3.42;;;19.00;99.90;;;;;;5040249;28;20044;-32
2023/08/15 01:07:10;;;;;;;4.28;3.40;;;19.10;99.90;;;;;;5040829;28;20040;-32
2023/08/15 01:09:37;;;;;;;4.20;3.72;;;19.20;99.90;;;;;;5043248;28;20509;-31
2023/08/15 01:12:05;;;;;;;4.03;3.63;;;19.20;99.90;;;;;;5040259;28;21028;-32
2023/08/15 01:14:47;;;;;;;4.60;4.20;;;19.30;99.90;;;;;;5037543;28;20025;-41
2023/08/15 01:17:17;;;;;;;3.78;3.47;;;19.30;99.90;;;;;;5042521;28;20502;-42
2023/08/15 01:19:47;;;;;;;7.80;3.70;;;19.20;99.90;;;;;;5022407;28;20029;-41
2023/08/15 01:22:21;;;;;;;7.25;5.35;;;19.30;99.90;;;;;;5040477;28;20041;-41
2023/08/15 01:24:48;;;;;;;4.50;3.53;;;19.20;99.90;;;;;;5039516;28;20025;-42
2023/08/15 01:27:14;;;;;;;4.55;3.50;;;19.30;99.90;;;;;;5040676;28;20032;-42
2023/08/15 01:29:40;;;;;;;5.00;3.55;;;19.30;99.90;;;;;;5037854;28;20033;-39
2023/08/15 01:32:34;;;;;;;4.20;3.80;;;19.40;99.90;;;;;;5040419;28;20040;-41
2023/08/15 01:35:15;;;;;;;5.18;4.18;;;19.30;99.90;;;;;;5040918;28;20422;-42
2023/08/15 01:37:43;;;;;;;4.95;3.88;;;19.30;99.90;;;;;;5037867;28;20502;-42
2023/08/15 01:40:14;;;;;;;8.40;4.20;;;19.30;99.90;;;;;;5037341;28;20091;-42
2023/08/15 01:42:41;;;;;;;4.72;4.22;;;19.30;99.90;;;;;;5042308;28;20136;-41
2023/08/15 01:45:08;;;;;;;5.50;4.00;;;19.40;99.90;;;;;;5039015;28;20033;-42
2023/08/15 01:47:34;;;;;;;5.53;3.97;;;19.40;99.90;;;;;;5043043;28;20056;-42
2023/08/15 01:49:59;;;;;;;5.95;3.97;;;19.40;99.90;;;;;;5041093;28;20060;-41
2023/08/15 01:52:25;;;;;;;5.38;4.20;;;19.40;99.90;;;;;;5047293;28;20439;-40
2023/08/15 01:54:50;;;;;;;7.38;4.47;;;19.40;99.90;;;;;;5042024;28;20494;-41
2023/08/15 01:57:16;;;;;;;5.50;3.78;;;19.40;99.90;;;;;;5040567;28;20029;-39
2023/08/15 01:59:43;;;;;;;4.25;3.85;;;19.40;99.90;;;;;;5040658;28;20037;-39
2023/08/15 02:02:10;;;;;;;5.18;4.13;;;19.40;99.90;;;;;;5044474;28;20037;-42
2023/08/15 02:04:35;;;;;;;5.22;4.60;;;19.40;99.90;;;;;;5038916;28;20037;-33
2023/08/15 02:07:01;;;;;;;5.47;4.00;;;19.40;99.90;;;;;;5037887;28;20844;-34
2023/08/15 02:09:27;;;;;;;5.22;4.45;;;19.40;99.90;;;;;;5044007;28;20036;-33
2023/08/15 02:11:52;;;;;;;8.00;4.88;;;19.40;99.90;;;;;;5038783;28;20099;-40
2023/08/15 02:14:18;;;;;;;6.25;4.68;;;19.40;99.90;;;;;;5041419;28;20479;-33
2023/08/15 02:16:44;;;;;;;5.85;4.35;;;19.40;99.90;;;;;;5038345;28;20049;-33
2023/08/15 02:19:09;;;;;;;4.93;4.40;;;19.40;99.90;;;;;;5028310;28;20056;-38
2023/08/15 02:21:35;;;;;;;7.32;4.80;;;19.40;99.90;;;;;;5035866;28;20037;-34
2023/08/15 02:24:00;;;;;;;5.00;4.18;;;19.40;99.90;;;;;;5039317;28;20025;-33
2023/08/15 02:26:26;;;;;;;6.15;4.90;;;19.40;99.90;;;;;;5041491;28;20064;-36
2023/08/15 02:28:52;;;;;;;5.22;4.32;;;19.40;99.90;;;;;;5045809;28;20028;-33
2023/08/15 02:31:17;;;;;;;4.90;4.32;;;19.40;99.90;;;;;;5041969;28;20095;-34
2023/08/15 02:33:43;;;;;;;4.93;3.60;;;19.30;99.90;;;;;;5040682;28;20051;-35
2023/08/15 02:36:09;;;;;;;5.82;4.22;;;19.20;99.90;;;;;;5043944;28;20029;-33
2023/08/15 02:38:35;;;;;;;5.40;4.30;;;19.20;99.90;;;;;;5027036;28;20032;-33
2023/08/15 02:41:00;;;;;;;4.53;4.13;;;19.20;99.90;;;;;;5039996;28;20060;-35
2023/08/15 02:43:26;;;;;;;5.20;4.00;;;19.20;99.90;;;;;;5037227;28;20112;-38
2023/08/15 02:45:52;;;;;;;5.70;3.85;;;19.20;99.90;;;;;;5045985;28;20037;-33
2023/08/15 02:48:17;;;;;;;5.22;4.00;;;19.10;99.90;;;;;;5043799;28;20395;-32
2023/08/15 02:50:43;;;;;;;4.47;4.07;;;19.10;99.90;;;;;;5041248;28;20123;-37
2023/08/15 02:53:09;;;;;;;4.32;3.92;;;19.10;99.90;;;;;;5040489;28;20087;-34
2023/08/15 02:55:34;;;;;;;4.45;3.95;;;19.10;99.90;;;;;;5044144;28;20115;-33
2023/08/15 02:58:00;;;;;;;5.00;4.00;;;19.10;99.90;;;;;;5038601;28;20108;-35
2023/08/15 03:00:26;;;;;;;6.97;3.97;;;19.00;99.90;;;;;;5035807;28;20425;-34
2023/08/15 03:02:52;;;;;;;5.25;3.92;;;19.00;99.90;;;;;;5042061;28;20135;-31
2023/08/15 03:05:18;;;;;;;4.85;3.88;;;19.00;99.90;;;;;;5041779;28;20112;-32
2023/08/15 03:07:44;;;;;;;5.05;4.03;;;19.00;99.90;;;;;;5041302;28;20182;-32
2023/08/15 03:10:10;;;;;;;5.75;4.10;;;18.90;99.90;;;;;;5036635;28;20037;-36
2023/08/15 03:12:35;;;;;;;3.97;3.67;;;18.90;99.90;;;;;;5025337;28;20485;-32
2023/08/15 03:15:01;;;;;;;4.40;3.83;;;19.00;99.90;;;;;;5041334;28;20025;-40
2023/08/15 03:17:26;;;;;;;4.50;4.10;;;19.00;99.90;;;;;;5038771;28;20054;-42
2023/08/15 03:19:54;;;;;;;4.60;3.92;;;19.00;99.90;;;;;;5039744;28;20047;-42
2023/08/15 03:22:19;;;;;;;4.97;3.50;;;18.90;99.90;;;;;;5041810;28;20521;-41
2023/08/15 03:24:45;;;;;;;3.08;2.88;;;18.60;99.90;;;;;;5039250;28;20037;-41
2023/08/15 03:27:13;;;;;;;5.07;3.45;;;18.40;99.90;;;;;;5037611;28;20092;-40
2023/08/15 03:29:38;;;;;;;3.97;2.90;;;18.40;99.90;;;;;;5039883;28;20048;-42
2023/08/15 03:32:04;;;;;;;3.88;3.10;;;18.50;99.90;;;;;;5038202;28;20025;-39
2023/08/15 03:34:30;;;;;;;3.40;3.20;;;18.50;99.90;;;;;;5039012;28;20017;-40
2023/08/15 03:36:56;;;;;;;4.13;3.08;;;18.40;99.90;;;;;;5038967;28;20044;-40
2023/08/15 03:39:22;;;;;;;2.65;2.45;;;18.40;99.90;;;;;;5041207;28;20411;-41
2023/08/15 03:41:47;;;;;;;2.72;2.50;;;18.50;99.90;;;;;;5037204;28;20037;-40
2023/08/15 03:44:13;;;;;;;3.40;3.10;;;18.30;99.90;;;;;;5039591;28;20346;-41
2023/08/15 03:46:40;;;;;;;3.47;3.03;;;18.40;99.90;;;;;;5042970;28;20028;-41
2023/08/15 03:49:06;;;;;;;3.15;2.85;;;18.50;99.90;;;;;;5041466;28;20040;-40
2023/08/15 03:51:32;;;;;;;3.53;2.88;;;18.50;99.90;;;;;;5036352;28;20048;-40
2023/08/15 03:53:57;;;;;;;3.50;3.20;;;18.50;99.90;;;;;;5040606;28;20300;-40
2023/08/15 03:56:23;;;;;;;3.38;3.08;;;18.40;99.90;;;;;;5041447;28;20028;-40
2023/08/15 03:58:48;;;;;;;4.00;3.60;;;18.30;99.90;;;;;;5044219;28;20029;-42
2023/08/15 04:01:14;;;;;;;3.60;3.30;;;18.30;99.90;;;;;;5038311;28;20041;-41
2023/08/15 04:03:40;;;;;;;4.32;3.92;;;18.20;99.90;;;;;;5038611;28;20032;-40
2023/08/15 04:06:05;;;;;;;4.18;3.10;;;18.30;99.90;;;;;;5042087;28;20051;-41
2023/08/15 04:08:31;;;;;;;4.05;3.65;;;18.30;99.90;;;;;;5041577;28;20033;-41
2023/08/15 04:10:57;;;;;;;4.68;3.63;;;18.30;99.90;;;;;;5038637;28;20033;-41
2023/08/15 04:13:22;;;;;;;3.88;3.58;;;18.40;99.90;;;;;;5044987;28;20040;-40
2023/08/15 04:15:48;;;;;;;3.72;3.42;;;18.40;99.90;;;;;;5040645;28;20033;-41
2023/08/15 04:18:13;;;;;;;4.40;4.00;;;18.40;99.90;;;;;;5026108;28;20048;-41
2023/08/15 04:20:41;;;;;;;3.88;3.58;;;18.40;99.90;;;;;;5038062;28;20025;-41
2023/08/15 04:23:08;;;;;;;4.50;3.45;;;18.40;99.90;;;;;;5040528;28;20070;-39
2023/08/15 04:25:34;;;;;;;4.40;3.88;;;18.50;99.90;;;;;;5039520;28;20049;-32
2023/08/15 04:28:01;;;;;;;5.90;3.60;;;18.40;99.90;;;;;;5038358;28;20067;-32
2023/08/15 04:30:27;;;;;;;4.47;3.97;;;18.50;99.90;;;;;;5038567;28;20459;-33
2023/08/15 04:32:52;;;;;;;4.38;4.05;;;18.50;99.90;;;;;;5043127;28;20037;-35
2023/08/15 04:35:18;;;;;;;4.10;3.67;;;18.50;99.90;;;;;;5038302;28;20076;-32
2023/08/15 04:37:43;;;;;;;6.47;3.78;;;18.50;99.90;;;;;;5041523;28;20032;-32
2023/08/15 04:40:15;;;;;;;4.50;4.10;;;18.50;99.90;;;;;;5039396;28;20037;-32
2023/08/15 04:42:41;;;;;;;4.47;3.78;;;18.50;99.90;;;;;;5037425;28;20026;-35
2023/08/15 04:45:08;;;;;;;3.60;3.30;;;18.50;99.90;;;;;;5023263;28;20037;-42
2023/08/15 04:47:34;;;;;;;5.72;5.22;;;18.50;99.90;;;;;;5042075;28;20109;-41
2023/08/15 04:49:59;;;;;;;4.72;4.32;;;18.60;99.90;;;;;;5039160;28;20033;-36
2023/08/15 04:52:25;;;;;;;4.38;3.97;;;18.60;99.90;;;;;;5027240;28;20035;-36
2023/08/15 04:54:51;;;;;;;5.72;3.92;;;18.70;99.90;;;;;;5012811;28;20024;-36
2023/08/15 04:57:17;;;;;;;4.13;3.83;;;18.70;99.90;;;;;;5033851;28;20048;-40
2023/08/15 04:59:42;;;;;;;5.97;4.10;;;18.80;99.90;;;;;;5026077;28;20564;-34
2023/08/15 05:02:08;;;;;;;5.63;4.30;;;18.80;99.90;;;;;;5028298;28;20128;-38
2023/08/15 05:04:34;;;;;;;4.63;4.05;;;18.90;99.90;;;;;;5008742;28;20065;-39
2023/08/15 05:07:00;;;;;;;5.10;4.47;;;19.00;99.90;;;;;;5030601;28;20033;-41
2023/08/15 05:09:28;;;;;;;4.65;3.97;;;19.00;99.90;;;;;;5038792;28;20355;-41
2023/08/15 05:11:54;;;;;;;5.53;4.38;;;19.10;99.90;;;;;;5036940;28;20482;-42
2023/08/15 05:14:19;;;;;;;4.20;3.80;;;19.10;99.90;;;;;;5042809;28;20033;-39
2023/08/15 05:16:45;;;;;;;4.80;4.40;;;19.20;99.90;;;;;;5041994;28;20119;-42
2023/08/15 05:19:11;;;;;;;7.00;4.70;;;19.30;99.90;;;;;;5038911;28;20460;-41
2023/08/15 05:21:36;;;;;;;4.80;4.35;;;19.40;99.90;;;;;;5038362;28;20037;-38
2023/08/15 05:24:02;;;;;;;4.47;4.05;;;19.40;99.90;;;;;;5045067;28;20114;-40
2023/08/15 05:26:28;;;;;;;5.13;4.53;;;19.50;99.90;;;;;;5027417;28;20032;-39
2023/08/15 05:28:53;;;;;;;5.90;4.90;;;19.60;99.90;;;;;;5041796;28;20095;-41
2023/08/15 05:31:19;;;;;;;4.53;4.13;;;19.70;99.90;;;;;;5042395;28;20033;-39
2023/08/15 05:33:45;;;;;;;4.47;3.88;;;19.80;99.90;;;;;;5039513;28;20025;-40
2023/08/15 05:36:11;;;;;;;5.15;4.65;;;19.80;99.90;;;;;;5043679;28;20059;-31
2023/08/15 05:38:36;;;;;;;7.13;5.05;;;19.90;99.90;;;;;;5044927;28;20053;-33
2023/08/15 05:41:02;;;;;;;6.00;5.50;;;19.90;99.90;;;;;;5027662;28;20632;-32
2023/08/15 05:43:28;;;;;;;5.78;5.18;;;20.00;99.90;;;;;;5026666;28;20550;-31
2023/08/15 05:45:53;;;;;;;5.88;5.28;;;20.20;99.90;;;;;;5026264;28;20025;-31
2023/08/15 05:48:19;;;;;;;7.22;5.22;;;20.20;99.90;;;;;;5045410;28;20425;-34
2023/08/15 05:50:45;;;;;;;6.00;5.40;;;20.30;99.90;;;;;;5042712;28;20026;-31
2023/08/15 05:53:10;;;;;;;5.45;4.95;;;20.30;99.90;;;;;;5044029;28;20057;-32
2023/08/15 05:55:36;;;;;;;6.82;5.47;;;20.30;99.90;;;;;;5040353;28;20593;-41
2023/08/15 05:58:02;;;;;;;7.35;6.43;;;20.40;99.90;;;;;;5044942;28;20025;-39
2023/08/15 06:00:28;;;;;;;6.32;5.72;;;20.50;99.90;;;;;;5038428;28;20117;-40
2023/08/15 06:02:53;;;;;;;7.72;5.72;;;20.60;99.90;;;;;;5029132;28;20651;-35
2023/08/15 06:05:21;;;;;;;6.45;5.70;;;20.80;99.90;;;;;;5032009;28;20044;-37
2023/08/15 06:07:47;;;;;;;6.07;5.55;;;20.90;99.90;;;;;;5032837;28;20163;-40
2023/08/15 06:10:13;;;;;;;7.05;5.75;;;21.00;99.90;;;;;;5031286;28;20043;-40
2023/08/15 06:12:39;;;;;;;8.73;6.05;;;21.10;99.90;;;;;;5029925;28;20155;-37
2023/08/15 06:15:05;;;;;;;7.78;6.07;;;21.30;99.90;;;;;;5033114;28;20157;-39
2023/08/15 06:17:31;;;;;;;8.50;6.78;;;21.30;99.90;;;;;;5031732;28;20056;-38
2023/08/15 06:19:56;;;;;;;7.00;6.30;;;21.30;99.90;;;;;;5031778;28;20095;-37
2023/08/15 06:22:22;;;;;;;7.70;6.90;;;21.30;99.90;;;;;;5031983;28;20617;-39
2023/08/15 06:24:47;;;;;;;7.95;7.15;;;21.30;99.90;;;;;;5030693;28;20033;-40
2023/08/15 06:27:13;;;;;;;7.05;6.35;;;21.30;99.90;;;;;;5031329;28;20036;-37
2023/08/15 06:29:38;;;;;;;6.63;5.93;;;21.50;99.90;;;;;;5032068;28;20033;-41
2023/08/15 06:32:06;;;;;;;7.07;5.68;;;21.60;99.90;;;;;;5018146;28;20026;-42
2023/08/15 06:34:31;;;;;;;7.03;5.70;;;21.90;99.90;;;;;;5037347;28;20361;-41
2023/08/15 06:36:57;;;;;;;6.05;5.45;;;22.10;99.90;;;;;;5038263;28;20040;-41
2023/08/15 06:39:23;;;;;;;7.72;5.68;;;22.30;99.90;;;;;;5039829;28;20032;-40
2023/08/15 06:41:48;;;;;;;6.75;5.75;;;22.40;99.90;;;;;;5041352;28;20464;-41
2023/08/15 06:44:14;;;;;;;5.75;5.22;;;22.50;99.90;;;;;;5041018;28;20029;-41
2023/08/15 06:46:39;;;;;;;6.18;5.57;;;22.70;99.90;;;;;;5043298;28;20036;-41
2023/08/15 06:49:05;;;;;;;6.68;5.57;;;23.00;99.90;;;;;;5041152;28;20028;-41
2023/08/15 06:51:30;;;;;;;6.13;5.50;;;23.00;99.90;;;;;;5038221;28;20445;-37
2023/08/15 06:53:56;;;;;;;5.30;4.80;;;23.10;99.90;;;;;;5042078;28;20021;-39
2023/08/15 06:56:22;;;;;;;6.53;5.03;;;23.20;99.90;;;;;;5042252;28;20033;-42
2023/08/15 06:58:47;;;;;;;5.82;5.30;;;23.50;99.90;;;;;;5044836;28;20072;-40
2023/08/15 07:01:13;;;;;;;6.55;5.80;;;23.70;99.90;;;;;;5040717;28;20524;-39
2023/08/15 07:03:38;;;;;;;5.88;5.28;;;23.70;99.90;;;;;;5041113;28;20516;-41
2023/08/15 07:06:05;;;;;;;5.57;5.05;;;23.60;99.90;;;;;;5038131;28;20379;-35
2023/08/15 07:08:31;;;;;;;9.60;5.75;;;23.80;99.90;;;;;;5042485;28;20067;-33
2023/08/15 07:10:57;;;;;;;6.30;5.70;;;24.10;99.90;;;;;;5038105;28;20452;-33
2023/08/15 07:13:23;;;;;;;5.72;5.22;;;24.20;99.90;;;;;;5039087;28;20045;-33
2023/08/15 07:15:55;;;;;;;6.32;5.63;;;24.20;99.90;;;;;;5035658;28;20211;-32
2023/08/15 07:18:21;;;;;;;6.45;5.88;;;24.10;99.90;;;;;;5037898;28;20037;-35
2023/08/15 07:20:46;;;;;;;7.40;6.15;;;24.20;99.90;;;;;;5037939;28;20032;-33
2023/08/15 07:23:12;;;;;;;6.80;6.10;;;24.40;99.90;;;;;;5040566;28;20086;-34
2023/08/15 07:25:41;;;;;;;6.57;5.35;;;24.50;99.90;;;;;;5041481;28;20029;-32
2023/08/15 07:28:07;;;;;;;7.75;5.57;;;24.70;99.90;;;;;;5043370;28;20048;-32
2023/08/15 07:30:33;;;;;;;6.85;6.03;;;24.90;99.90;;;;;;5037103;28;20429;-34
2023/08/15 07:32:58;;;;;;;6.15;5.53;;;24.90;99.90;;;;;;5042341;28;20116;-33
2023/08/15 07:35:24;;;;;;;7.25;6.55;;;24.70;99.90;;;;;;5035328;28;20108;-32
2023/08/15 07:37:50;;;;;;;5.82;5.22;;;24.90;99.90;;;;;;5036612;28;21379;-34
2023/08/15 07:40:20;;;;;;;5.93;5.35;;;25.00;99.90;;;;;;5037193;28;20069;-32
2023/08/15 07:42:49;;;;;;;6.70;5.32;;;25.10;99.90;;;;;;5042253;28;20043;-33
2023/08/15 07:45:18;;;;;;;6.13;5.50;;;25.30;99.90;;;;;;5040326;28;20123;-33
2023/08/15 07:47:45;;;;;;;7.13;5.32;;;25.60;99.90;;;;;;5041204;28;20036;-32
2023/08/15 07:50:18;;;;;;;6.03;5.43;;;25.90;99.90;;;;;;5038368;28;20032;-32
2023/08/15 07:52:44;;;;;;;5.70;5.20;;;26.40;99.90;;;;;;5024679;28;20029;-32
2023/08/15 07:55:10;;;;;;;7.13;5.82;;;26.60;99.90;;;;;;5043287;28;20078;-32
2023/08/15 07:57:35;;;;;;;5.80;5.22;;;26.70;99.90;;;;;;5039134;28;20032;-33
2023/08/15 08:00:01;;;;;;;6.07;5.43;;;26.70;99.90;;;;;;5040856;28;20108;-33
2023/08/15 08:02:27;;;;;;;6.32;5.10;;;26.80;99.90;;;;;;5038160;28;20045;-34
2023/08/15 08:04:53;;;;;;;5.82;5.05;;;26.70;99.90;;;;;;5041343;28;20526;-37
2023/08/15 08:07:18;;;;;;;6.72;4.65;;;26.70;99.90;;;;;;5040673;28;20039;-32
2023/08/15 08:09:44;;;;;;;5.72;4.97;;;26.60;99.90;;;;;;5039388;28;20036;-34
2023/08/15 08:12:09;;;;;;;5.63;5.13;;;26.60;99.90;;;;;;5042649;28;20029;-34
2023/08/15 08:14:35;;;;;;;5.55;4.80;;;26.70;99.90;;;;;;5039716;28;20426;-32
2023/08/15 08:17:01;;;;;;;7.43;5.20;;;26.80;99.90;;;;;;5043007;28;20045;-32
2023/08/15 08:19:26;;;;;;;5.03;4.30;;;26.70;99.90;;;;;;5041445;28;20132;-34
2023/08/15 08:21:52;;;;;;;5.15;4.75;;;26.60;99.90;;;;;;5043090;28;20029;-32
2023/08/15 08:24:18;;;;;;;4.57;4.20;;;26.60;99.90;;;;;;5042896;28;20103;-32
2023/08/15 08:26:43;;;;;;;7.97;4.47;;;26.90;99.90;;;;;;5040154;28;20490;-34
2023/08/15 08:29:10;;;;;;;4.53;4.13;;;27.40;99.90;;;;;;5042290;28;20039;-35
2023/08/15 08:31:39;;;;;;;4.45;4.00;;;27.80;99.90;;;;;;5037972;28;20125;-33
2023/08/15 08:34:05;;;;;;;4.43;4.00;;;28.10;99.90;;;;;;5040045;28;20391;-39
2023/08/15 08:36:31;;;;;;;5.10;4.45;;;28.40;99.90;;;;;;5039234;28;20039;-37
2023/08/15 08:38:56;;;;;;;7.93;3.88;;;28.80;99.90;;;;;;5037977;28;20029;-41
2023/08/15 08:41:23;;;;;;;4.22;3.80;;;28.80;99.90;;;;;;5023626;28;20067;-42
2023/08/15 08:43:48;;;;;;;5.20;2.90;;;28.60;99.90;;;;;;5039974;28;20060;-42
2023/08/15 08:46:16;;;;;;;2.78;2.53;;;28.20;99.90;;;;;;5036946;28;20079;-39
2023/08/15 08:48:42;;;;;;;;;;;28.30;99.90;;;;;;5037244;28;20028;-41
2023/08/15 08:51:08;;;;;;;3.78;2.58;;;28.60;99.90;;;;;;5034993;28;19958;-39
2023/08/15 08:53:34;;;;;;;3.38;2.88;;;28.70;99.90;;;;;;5025407;28;20179;-41
2023/08/15 08:56:01;;;;;;;4.88;2.90;;;28.80;99.90;;;;;;5048956;28;20052;-40
2023/08/15 08:58:29;;;;;;;5.37;2.90;;;28.40;99.90;;;;;;5041411;28;20033;-40
2023/08/15 09:00:58;;;;;;;5.28;2.97;;;28.50;99.90;;;;;;5043652;28;20048;-41
2023/08/15 09:03:24;;;;;;;5.15;2.90;;;28.70;99.90;;;;;;5046131;28;20025;-40
2023/08/15 09:05:51;;;;;;;4.35;3.17;;;29.20;99.90;;;;;;5026435;28;20483;-38
2023/08/15 09:08:16;;;;;;;5.80;2.80;;;29.60;99.90;;;;;;5038871;28;20069;-38
2023/08/15 09:10:42;;;;;;;4.90;3.50;;;29.50;99.90;;;;;;5039671;28;20411;-40
2023/08/15 09:13:07;;;;;;;4.88;3.50;;;29.60;99.90;;;;;;5045679;28;20051;-41
2023/08/15 09:15:33;;;;;;;5.72;3.40;;;29.80;99.90;;;;;;5038920;28;20029;-32
2023/08/15 09:18:01;;;;;;;3.42;3.10;;;29.90;99.90;;;;;;5046630;28;20049;-33
2023/08/15 09:20:27;;;;;;;4.68;3.00;;;29.60;99.90;;;;;;5024254;28;20052;-32
2023/08/15 09:22:56;;;;;;;3.55;2.72;;;29.60;99.90;;;;;;5028547;28;20059;-29
2023/08/15 09:25:25;;;;;;;4.82;2.47;;;30.00;99.90;;;;;;5040336;28;20517;-28
2023/08/15 09:27:51;;;;;;;7.47;2.92;;;30.20;99.90;;;;;;5040658;28;20040;-30
2023/08/15 09:30:17;;;;;;;5.20;3.00;;;30.00;99.90;;;;;;5043259;28;20033;-31
2023/08/15 09:32:45;;;;;;;4.00;3.22;;;30.00;99.90;;;;;;5044011;28;20367;-33
2023/08/15 09:35:12;;;;;;;5.60;3.08;;;30.50;99.90;;;;;;5043339;28;20056;-36
2023/08/15 09:37:51;;;;;;;4.65;3.10;;;30.00;99.90;;;;;;5044152;28;20146;-38
2023/08/15 09:40:25;;;;;;;5.75;2.80;;;29.20;99.90;;;;;;5045666;28;20231;-40
2023/08/15 09:42:52;;;;;;;3.90;2.72;;;28.90;99.90;;;;;;5031144;28;20099;-36
2023/08/15 09:45:19;;;;;;;6.03;2.97;;;29.10;99.90;;;;;;5030517;28;20029;-40
2023/08/15 09:47:45;;;;;;;4.47;3.53;;;29.20;99.90;;;;;;5043482;28;20033;-41
2023/08/15 09:50:12;;;;;;;7.18;4.03;;;29.50;99.90;;;;;;5042656;28;20103;-38
2023/08/15 09:52:40;;;;;;;5.97;4.40;;;29.70;99.90;;;;;;5044438;28;20026;-40
2023/08/15 09:55:10;;;;;;;5.68;4.10;;;30.00;99.90;;;;;;5039040;28;20062;-38
2023/08/15 09:57:40;;;;;;;4.60;4.20;;;29.90;99.90;;;;;;5043823;28;20135;-39
2023/08/15 10:00:12;;;;;;;4.57;4.10;;;30.20;99.90;;;;;;5043173;28;20037;-37
2023/08/15 10:02:43;;;;;;;5.68;4.30;;;30.10;99.90;;;;;;5041078;28;20047;-37
2023/08/15 10:05:11;;;;;;;4.72;4.32;;;30.30;99.90;;;;;;5041475;28;20075;-42
2023/08/15 10:07:38;;;;;;;4.75;3.95;;;29.90;99.90;;;;;;5048204;28;20037;-36
2023/08/15 10:10:04;;;;;;;4.07;3.67;;;30.20;99.90;;;;;;5042376;28;20033;-41
2023/08/15 10:12:31;;;;;;;5.77;4.17;;;30.80;99.90;;;;;;5040129;28;20032;-37
2023/08/15 10:14:58;;;;;;;;;;;31.00;99.90;;;;;;5038231;28;20367;-41
2023/08/15 10:17:29;;;;;;;4.40;4.00;;;31.40;99.90;;;;;;5039288;28;19921;-41
2023/08/15 10:20:05;;;;;;;5.63;3.90;;;31.70;99.90;;;;;;5041834;28;20486;-38
2023/08/15 10:22:33;;;;;;;5.65;4.07;;;31.80;99.90;;;;;;5040485;28;20025;-41
2023/08/15 10:25:31;;;;;;;4.65;4.25;;;31.60;99.90;;;;;;5040980;28;20103;-39
2023/08/15 10:27:56;;;;;;;5.65;4.30;;;31.00;99.90;;;;;;5034516;28;20171;-40
2023/08/15 10:30:41;;;;;;;4.85;4.20;;;30.60;99.90;;;;;;5038473;28;20036;-41
2023/08/15 10:33:28;;;;;;;5.53;3.65;;;30.80;99.90;;;;;;5040354;28;20037;-38
2023/08/15 10:35:54;;;;;;;4.72;3.58;;;30.90;99.90;;;;;;5042498;28;20097;-38
2023/08/15 10:38:38;;;;;;;5.97;3.58;;;31.00;99.90;;;;;;5038247;28;20399;-40
2023/08/15 10:41:06;;;;;;;5.45;3.17;;;30.80;99.90;;;;;;5041675;28;20032;-40
2023/08/15 10:43:33;;;;;;;3.80;3.22;;;31.10;99.90;;;;;;5045292;28;20501;-37
2023/08/15 10:46:01;;;;;;;4.80;3.53;;;31.00;99.90;;;;;;5043569;28;20429;-38
2023/08/15 10:48:50;;;;;;;6.43;4.18;;;30.60;99.90;;;;;;5040921;28;20033;-39
2023/08/15 10:51:25;;;;;;;5.93;4.63;;;30.50;99.90;;;;;;5043419;28;20037;-40
2023/08/15 10:53:56;;;;;;;5.70;4.53;;;29.90;99.90;;;;;;5040298;28;20033;-40
2023/08/15 10:56:28;;;;;;;4.95;4.20;;;30.00;99.90;;;;;;5039977;28;20028;-40
2023/08/15 10:58:55;;;;;;;6.47;4.25;;;30.20;99.90;;;;;;5040695;28;20025;-40
2023/08/15 11:01:22;;;;;;;5.93;3.90;;;30.30;99.90;;;;;;5040668;28;20380;-39
2023/08/15 11:03:50;;;;;;;5.97;3.35;;;30.60;99.90;;;;;;5041951;28;20040;-40
2023/08/15 11:06:17;;;;;;;5.63;3.70;;;30.30;99.90;;;;;;5042760;28;20398;-39
2023/08/15 11:08:49;;;;;;;4.90;3.72;;;29.70;99.90;;;;;;5041135;28;20071;-39
2023/08/15 11:11:16;;;;;;;4.45;3.42;;;29.60;99.90;;;;;;5040655;28;20049;-39
2023/08/15 11:13:47;;;;;;;4.83;3.10;;;29.50;99.90;;;;;;5039247;28;20079;-41
2023/08/15 11:16:19;;;;;;;4.90;3.00;;;29.50;99.90;;;;;;5043011;28;20594;-39
2023/08/15 11:18:46;;;;;;;4.38;2.80;;;29.50;99.90;;;;;;5044162;28;20025;-40
2023/08/15 11:21:13;;;;;;;7.20;3.13;;;29.80;99.90;;;;;;5046341;28;20373;-40
2023/08/15 11:23:39;;;;;;;6.55;3.28;;;29.90;99.90;;;;;;5043807;28;20501;-39
2023/08/15 11:26:09;;;;;;;6.70;3.40;;;30.40;99.90;;;;;;5026440;28;20032;-40
2023/08/15 11:28:36;;;;;;;6.63;3.22;;;30.60;99.90;;;;;;5044532;28;20033;-40
2023/08/15 11:31:06;;;;;;;4.78;3.30;;;30.30;99.90;;;;;;5038877;28;20033;-39
2023/08/15 11:33:32;;;;;;;6.38;3.05;;;30.30;99.90;;;;;;5040136;28;20033;-37
2023/08/15 11:36:03;;;;;;;4.25;3.00;;;29.80;99.90;;;;;;5044804;28;20043;-40
2023/08/15 11:38:30;;;;;;;4.43;2.67;;;30.00;99.90;;;;;;5044337;28;20041;-40
2023/08/15 11:40:57;;;;;;;4.88;3.40;;;30.40;99.90;;;;;;5037858;28;20033;-37
2023/08/15 11:43:23;;;;;;;3.47;2.83;;;30.30;99.90;;;;;;5042436;28;20397;-40
2023/08/15 11:45:49;;;;;;;7.30;3.40;;;29.70;99.90;;;;;;5040707;28;20033;-40
2023/08/15 11:48:14;;;;;;;5.25;2.83;;;29.50;99.90;;;;;;5038256;28;20472;-40
2023/08/15 11:50:43;;;;;;;5.45;3.20;;;29.60;99.90;;;;;;5037437;28;20040;-40
2023/08/15 11:53:18;;;;;;;6.22;3.45;;;29.90;99.90;;;;;;5043154;28;20116;-41
2023/08/15 11:55:46;;;;;;;7.60;3.72;;;30.20;99.90;;;;;;5041797;28;20083;-38
2023/08/15 11:58:27;;;;;;;;;;;30.30;99.90;;;;;;5041571;28;20025;-41
2023/08/15 12:01:11;;;;;;;5.60;2.90;;;30.00;99.90;;;;;;5038839;28;19917;-39
2023/08/15 12:03:37;;;;;;;3.42;3.03;;;30.50;99.90;;;;;;5040880;28;20036;-40
2023/08/15 12:06:11;;;;;;;7.10;3.95;;;30.70;99.90;;;;;;5041347;28;20033;-37
2023/08/15 12:08:39;;;;;;;3.72;2.88;;;30.80;99.90;;;;;;5034177;28;20140;-40
2023/08/15 12:11:07;;;;;;;5.13;2.75;;;30.50;99.90;;;;;;5041078;28;20694;-38
2023/08/15 12:13:41;;;;;;;4.03;3.17;;;30.50;99.90;;;;;;5038123;28;20059;-39
2023/08/15 12:16:08;;;;;;;5.10;2.85;;;30.10;99.90;;;;;;5039882;28;20044;-38
2023/08/15 12:18:34;;;;;;;5.03;3.00;;;30.30;99.90;;;;;;5038726;28;20048;-40
2023/08/15 12:21:01;;;;;;;5.47;2.70;;;30.70;99.90;;;;;;5041138;28;20082;-42
2023/08/15 12:23:26;;;;;;;3.50;2.70;;;30.50;99.90;;;;;;5041891;28;20487;-39
2023/08/15 12:25:52;;;;;;;5.60;2.58;;;30.30;99.90;;;;;;5041538;28;20282;-41
2023/08/15 12:28:18;;;;;;;4.60;2.67;;;30.50;99.90;;;;;;5041161;28;20029;-40
2023/08/15 12:30:45;;;;;;;4.45;2.40;;;30.30;99.90;;;;;;5036477;28;20021;-39
2023/08/15 12:33:11;;;;;;;7.55;2.50;;;30.40;99.90;;;;;;5037701;28;20029;-35
2023/08/15 12:35:37;;;;;;;6.22;2.60;;;30.60;99.90;;;;;;5036842;28;20465;-38
2023/08/15 12:38:02;;;;;;;5.85;2.72;;;30.70;99.90;;;;;;5038553;28;20056;-36
2023/08/15 12:40:28;;;;;;;4.30;2.70;;;31.00;99.90;;;;;;5025639;28;20033;-40
2023/08/15 12:42:54;;;;;;;3.80;2.53;;;31.10;99.90;;;;;;5023288;28;20122;-40
2023/08/15 12:45:19;;;;;;;4.85;2.47;;;31.10;99.90;;;;;;5039099;28;20036;-31
2023/08/15 12:47:45;;;;;;;4.80;2.33;;;31.30;99.90;;;;;;5039602;28;20078;-31